Time;durP1;ratioP1;P1;durP2;ratioP2;P2;SDS_P1;SDS_P2;PMS_P1;PMS_P2;Temp;Humidity;BMP_temperature;BMP_pressure;BME280_temperature;BME280_humidity;BME280_pressure;Samples;Min_cycle;Max_cycle;Signal;HPM_P1;HPM_P2
2021/01/19 00:00:38;;;;;;;14.95;13.35;;;;;;;;;;5034616;28;20222;-61
2021/01/19 00:03:05;;;;;;;14.90;12.88;;;;;;;;;;5033947;28;20217;-62
2021/01/19 00:05:32;;;;;;;16.38;12.57;;;;;;;;;;5033554;28;20209;-61
2021/01/19 00:07:59;;;;;;;16.63;13.75;;;;;;;;;;5033651;28;20218;-62
2021/01/19 00:10:26;;;;;;;19.45;14.73;;;;;;;;;;5033732;28;20226;-63
2021/01/19 00:12:53;;;;;;;16.55;13.95;;;;;;;;;;5040211;28;20198;-63
2021/01/19 00:15:20;;;;;;;18.10;14.40;;;;;;;;;;5045161;28;20206;-63
2021/01/19 00:17:46;;;;;;;20.60;14.85;;;;;;;;;;5044213;28;20201;-63
2021/01/19 00:20:13;;;;;;;16.83;15.00;;;;;;;;;;5037368;28;20222;-63
2021/01/19 00:22:40;;;;;;;18.98;16.15;;;;;;;;;;5035380;28;20611;-62
2021/01/19 00:25:07;;;;;;;20.30;15.68;;;;;;;;;;5037343;28;20202;-62
2021/01/19 00:27:35;;;;;;;22.75;16.40;;;;;;;;;;5037545;28;20578;-62
2021/01/19 00:30:02;;;;;;;19.45;17.13;;;;;;;;;;5037113;28;20721;-63
2021/01/19 00:32:28;;;;;;;22.42;16.15;;;;;;;;;;5037457;28;20206;-62
2021/01/19 00:34:55;;;;;;;24.10;17.70;;;;;;;;;;5037323;28;20213;-62
2021/01/19 00:37:22;;;;;;;24.88;18.42;;;;;;;;;;5037414;28;20206;-62
2021/01/19 00:39:48;;;;;;;22.85;17.33;;;;;;;;;;5037085;28;20717;-62
2021/01/19 00:42:15;;;;;;;19.98;17.88;;;;;;;;;;5037525;28;20202;-62
2021/01/19 00:44:43;;;;;;;23.75;16.50;;;;;;;;;;5037102;28;20730;-62
2021/01/19 00:47:10;;;;;;;20.30;16.90;;;;;;;;;;5039635;28;20278;-61
2021/01/19 00:49:37;;;;;;;20.40;18.25;;;;;;;;;;5048673;28;20280;-63
2021/01/19 00:52:04;;;;;;;19.55;17.08;;;;;;;;;;5040051;28;20256;-62
2021/01/19 00:54:30;;;;;;;19.42;16.52;;;;;;;;;;5038721;28;20206;-62
2021/01/19 00:56:57;;;;;;;19.70;16.83;;;;;;;;;;5041368;28;20209;-62
2021/01/19 00:59:24;;;;;;;20.92;16.98;;;;;;;;;;5039672;28;20222;-62
2021/01/19 01:01:51;;;;;;;20.65;16.83;;;;;;;;;;5037695;28;20632;-62
2021/01/19 01:04:18;;;;;;;20.30;15.70;;;;;;;;;;5037727;28;20202;-62
2021/01/19 01:25:08;;;;;;;19.50;16.98;;;;;;;;;;5048390;28;20249;-62
2021/01/19 01:27:35;;;;;;;19.15;17.13;;;;;;;;;;5042251;28;20230;-62
2021/01/19 01:30:02;;;;;;;21.55;18.15;;;;;;;;;;5045752;28;20298;-62
2021/01/19 01:32:29;;;;;;;18.67;16.63;;;;;;;;;;5048734;28;20234;-61
2021/01/19 01:34:56;;;;;;;21.85;16.90;;;;;;;;;;5052467;28;20210;-62
2021/01/19 01:37:23;;;;;;;19.50;16.45;;;;;;;;;;5053799;28;20234;-62
2021/01/19 01:39:50;;;;;;;21.80;16.63;;;;;;;;;;5054057;28;20237;-62
2021/01/19 01:42:21;;;;;;;18.60;15.85;;;;;;;;;;5053065;28;20277;-62
2021/01/19 01:44:47;;;;;;;19.30;16.15;;;;;;;;;;5051863;28;20262;-62
2021/01/19 01:47:18;;;;;;;18.50;15.30;;;;;;;;;;5052938;28;20206;-62
2021/01/19 01:49:44;;;;;;;15.75;14.10;;;;;;;;;;5054144;28;20218;-62
2021/01/19 01:52:11;;;;;;;16.27;14.40;;;;;;;;;;5054008;28;20202;-62
2021/01/19 01:54:38;;;;;;;20.20;15.30;;;;;;;;;;5053293;28;20244;-61
2021/01/19 01:57:06;;;;;;;19.52;14.70;;;;;;;;;;5053510;28;20202;-62
2021/01/19 01:59:34;;;;;;;18.90;14.00;;;;;;;;;;5053739;28;20611;-61
2021/01/19 02:02:08;;;;;;;21.38;14.82;;;;;;;;;;5039785;28;20259;-64
2021/01/19 02:04:34;;;;;;;19.63;14.02;;;;;;;;;;5036926;28;20293;-62
2021/01/19 02:13:13;;;;;;;13.95;12.45;;;;;;;;;;5036209;28;20212;-62
2021/01/19 02:15:44;;;;;;;23.58;13.27;;;;;;;;;;5036754;28;20202;-62
2021/01/19 02:18:15;;;;;;;14.73;13.13;;;;;;;;;;5039129;28;20197;-62
2021/01/19 02:20:51;;;;;;;19.85;12.45;;;;;;;;;;5045416;28;20779;-63
2021/01/19 02:23:34;;;;;;;18.10;13.52;;;;;;;;;;5049153;28;20206;-62
2021/01/19 02:26:08;;;;;;;20.92;12.73;;;;;;;;;;5044769;28;20190;-62
2021/01/19 02:28:37;;;;;;;13.95;12.52;;;;;;;;;;5040885;28;20225;-63
2021/01/19 02:31:13;;;;;;;15.90;12.77;;;;;;;;;;5040507;28;20221;-62
2021/01/19 02:33:45;;;;;;;13.63;12.23;;;;;;;;;;5039808;28;20202;-62
2021/01/19 02:42:22;;;;;;;14.57;12.95;;;;;;;;;;5014523;28;20247;-61
2021/01/19 02:44:51;;;;;;;17.40;11.63;;;;;;;;;;5030148;28;20304;-63
2021/01/19 02:47:18;;;;;;;14.32;12.82;;;;;;;;;;5034232;28;20202;-62
2021/01/19 02:49:46;;;;;;;16.25;13.15;;;;;;;;;;5035204;28;20333;-63
2021/01/19 02:55:16;;;;;;;16.60;12.27;;;;;;;;;;5034845;28;20169;-62
2021/01/19 02:58:01;;;;;;;13.02;11.63;;;;;;;;;;5035127;28;20256;-62
2021/01/19 03:00:31;;;;;;;13.13;11.20;;;;;;;;;;5035029;28;20222;-61
2021/01/19 03:02:59;;;;;;;10.60;9.60;;;;;;;;;;5035411;28;20584;-61
2021/01/19 03:05:29;;;;;;;11.23;10.13;;;;;;;;;;5035471;28;20210;-62
2021/01/19 03:07:57;;;;;;;12.52;10.88;;;;;;;;;;5035575;28;20226;-61
2021/01/19 03:10:26;;;;;;;11.48;10.27;;;;;;;;;;5035472;28;20218;-62
2021/01/19 03:12:53;;;;;;;12.00;9.52;;;;;;;;;;5035174;28;20202;-62
2021/01/19 03:15:20;;;;;;;12.27;10.05;;;;;;;;;;5034701;28;20614;-62
2021/01/19 03:17:47;;;;;;;10.23;9.27;;;;;;;;;;5034663;28;20667;-62
2021/01/19 03:20:14;;;;;;;11.13;9.07;;;;;;;;;;5034716;28;20223;-62
2021/01/19 03:22:42;;;;;;;10.25;8.65;;;;;;;;;;5039283;28;20248;-62
2021/01/19 03:25:09;;;;;;;14.40;9.93;;;;;;;;;;5042023;28;20205;-62
2021/01/19 03:27:36;;;;;;;10.82;8.52;;;;;;;;;;5041678;28;20206;-62
2021/01/19 03:30:04;;;;;;;12.32;9.43;;;;;;;;;;5036481;28;20226;-62
2021/01/19 03:32:30;;;;;;;9.57;8.57;;;;;;;;;;5037587;28;20595;-63
2021/01/19 03:34:57;;;;;;;9.77;8.77;;;;;;;;;;5038501;28;20199;-62
2021/01/19 03:37:24;;;;;;;9.80;8.80;;;;;;;;;;5038270;28;20205;-62
2021/01/19 03:39:51;;;;;;;10.38;9.27;;;;;;;;;;5040862;28;20226;-64
2021/01/19 03:42:18;;;;;;;10.27;9.38;;;;;;;;;;5042302;28;20206;-62
2021/01/19 03:44:45;;;;;;;13.00;10.10;;;;;;;;;;5037347;28;20210;-61
2021/01/19 03:47:12;;;;;;;10.05;8.75;;;;;;;;;;5037911;28;20210;-62
2021/01/19 03:49:38;;;;;;;9.82;8.93;;;;;;;;;;5037442;28;20234;-62
2021/01/19 03:52:05;;;;;;;10.55;8.45;;;;;;;;;;5038447;28;20616;-63
2021/01/19 03:54:32;;;;;;;13.27;8.60;;;;;;;;;;5038824;28;20575;-62
2021/01/19 03:56:59;;;;;;;14.50;8.63;;;;;;;;;;5037042;28;20213;-62
2021/01/19 03:59:27;;;;;;;10.85;9.50;;;;;;;;;;5035496;28;20218;-61
2021/01/19 04:01:53;;;;;;;11.23;10.02;;;;;;;;;;5034122;28;20297;-62
2021/01/19 04:07:38;;;;;;;9.93;8.70;;;;;;;;;;5132929;27;20607;-63
2021/01/19 04:10:06;;;;;;;10.45;9.32;;;;;;;;;;5131939;28;20309;-62
2021/01/19 04:12:33;;;;;;;11.30;10.20;;;;;;;;;;5132563;27;20711;-63
2021/01/19 04:14:59;;;;;;;10.98;9.88;;;;;;;;;;5139511;27;20662;-62
2021/01/19 04:17:26;;;;;;;13.63;9.57;;;;;;;;;;5139152;27;20199;-63
2021/01/19 04:19:53;;;;;;;11.13;9.93;;;;;;;;;;5136756;27;20222;-62
2021/01/19 04:22:21;;;;;;;10.90;9.90;;;;;;;;;;5134718;27;20195;-61
2021/01/19 04:24:48;;;;;;;14.98;10.90;;;;;;;;;;5133439;27;20199;-62
2021/01/19 04:27:15;;;;;;;11.52;10.32;;;;;;;;;;5133308;27;20215;-61
2021/01/19 04:29:42;;;;;;;11.20;10.10;;;;;;;;;;5133579;27;20227;-61
2021/01/19 04:32:09;;;;;;;11.05;9.70;;;;;;;;;;5134589;27;20203;-62
2021/01/19 04:34:35;;;;;;;10.95;9.85;;;;;;;;;;5133385;27;20195;-63
2021/01/19 04:37:02;;;;;;;17.25;10.68;;;;;;;;;;5131761;27;20202;-63
2021/01/19 04:39:29;;;;;;;11.02;9.93;;;;;;;;;;5131571;27;20230;-63
2021/01/19 04:41:57;;;;;;;9.70;8.90;;;;;;;;;;5131617;27;20195;-63
2021/01/19 04:44:24;;;;;;;10.93;8.95;;;;;;;;;;5131588;27;20199;-62
2021/01/19 04:46:52;;;;;;;9.95;8.95;;;;;;;;;;5131343;27;20712;-63
2021/01/19 04:49:19;;;;;;;10.98;9.73;;;;;;;;;;5131482;27;20299;-63
2021/01/19 04:51:47;;;;;;;12.77;9.30;;;;;;;;;;5131444;27;20210;-62
2021/01/19 04:54:16;;;;;;;10.45;8.10;;;;;;;;;;5132891;27;20210;-62
2021/01/19 04:56:50;;;;;;;8.63;7.45;;;;;;;;;;5131750;27;20203;-62
2021/01/19 04:59:22;;;;;;;10.63;7.20;;;;;;;;;;5131516;27;20223;-62
2021/01/19 05:02:06;;;;;;;7.55;6.50;;;;;;;;;;5131134;27;20192;-62
2021/01/19 05:04:51;;;;;;;6.85;6.22;;;;;;;;;;5131076;27;20248;-62
2021/01/19 05:07:30;;;;;;;9.02;6.57;;;;;;;;;;5130948;27;20309;-62
2021/01/19 05:10:27;;;;;;;6.93;6.00;;;;;;;;;;5130782;27;20257;-63
2021/01/19 05:13:01;;;;;;;8.82;6.00;;;;;;;;;;5124431;27;20290;-61
2021/01/19 05:15:30;;;;;;;9.45;5.50;;;;;;;;;;5131022;27;20190;-63
2021/01/19 05:17:57;;;;;;;7.45;6.35;;;;;;;;;;5122800;27;20195;-63
2021/01/19 05:20:31;;;;;;;5.90;4.97;;;;;;;;;;5116873;28;20215;-63
2021/01/19 05:22:58;;;;;;;6.25;4.40;;;;;;;;;;5116687;28;20245;-63
2021/01/19 05:25:25;;;;;;;9.77;5.35;;;;;;;;;;5117084;28;20671;-62
2021/01/19 05:27:52;;;;;;;5.55;5.05;;;;;;;;;;5117041;28;20253;-62
2021/01/19 05:30:19;;;;;;;5.20;4.45;;;;;;;;;;5133492;22;20638;-58
2021/01/19 05:32:47;;;;;;;4.80;4.40;;;;;;;;;;5096154;28;20200;-57
2021/01/19 05:35:17;;;;;;;8.00;4.70;;;;;;;;;;5096313;28;20200;-57
2021/01/19 05:37:56;;;;;;;4.80;3.97;;;;;;;;;;5095562;28;20201;-57
2021/01/19 05:40:23;;;;;;;4.63;4.20;;;;;;;;;;5095372;28;20327;-57
2021/01/19 05:42:49;;;;;;;7.65;3.40;;;;;;;;;;5095465;28;20672;-57
2021/01/19 05:45:16;;;;;;;4.75;4.32;;;;;;;;;;5095638;28;20200;-57
2021/01/19 05:47:44;;;;;;;4.90;4.07;;;;;;;;;;5095895;28;20207;-57
2021/01/19 05:50:12;;;;;;;8.73;5.32;;;;;;;;;;5095518;28;20224;-57
2021/01/19 05:52:39;;;;;;;6.50;4.43;;;;;;;;;;5095330;28;20200;-57
2021/01/19 05:55:06;;;;;;;5.05;4.18;;;;;;;;;;5095352;28;20209;-58
2021/01/19 05:57:33;;;;;;;4.65;4.13;;;;;;;;;;5095023;28;20204;-56
2021/01/19 06:00:00;;;;;;;3.88;3.58;;;;;;;;;;5095491;28;20220;-57
2021/01/19 06:02:36;;;;;;;5.10;3.08;;;;;;;;;;5095531;28;20203;-57
2021/01/19 06:05:08;;;;;;;4.18;3.40;;;;;;;;;;5095227;28;20245;-57
2021/01/19 06:07:38;;;;;;;4.53;3.17;;;;;;;;;;5095077;28;20200;-57
2021/01/19 06:10:08;;;;;;;5.93;4.05;;;;;;;;;;5094667;28;20220;-57
2021/01/19 06:12:35;;;;;;;4.18;3.47;;;;;;;;;;5095269;28;20180;-57
2021/01/19 06:15:02;;;;;;;3.95;2.95;;;;;;;;;;5095054;28;20601;-57
2021/01/19 06:17:29;;;;;;;7.13;3.70;;;;;;;;;;5094906;28;20613;-57
2021/01/19 06:19:59;;;;;;;4.47;3.25;;;;;;;;;;5094430;28;20225;-57
2021/01/19 06:22:27;;;;;;;4.78;3.60;;;;;;;;;;5094964;28;20317;-57
2021/01/19 06:24:55;;;;;;;7.00;3.85;;;;;;;;;;5094594;28;20548;-57
2021/01/19 06:27:31;;;;;;;4.60;4.00;;;;;;;;;;5094662;28;20224;-56
2021/01/19 06:30:08;;;;;;;3.75;3.30;;;;;;;;;;5093389;28;20711;-56
2021/01/19 06:32:36;;;;;;;6.00;3.40;;;;;;;;;;5094199;28;20362;-57
2021/01/19 06:35:10;;;;;;;6.00;3.60;;;;;;;;;;5094613;28;20234;-56
2021/01/19 06:37:37;;;;;;;5.95;3.20;;;;;;;;;;5094359;28;20197;-58
2021/01/19 06:40:06;;;;;;;7.20;3.38;;;;;;;;;;5094388;28;20220;-57
2021/01/19 06:42:33;;;;;;;5.68;3.35;;;;;;;;;;5094350;28;20205;-56
2021/01/19 06:45:01;;;;;;;3.72;3.33;;;;;;;;;;5094386;28;20200;-55
2021/01/19 06:47:28;;;;;;;6.05;3.20;;;;;;;;;;5094209;28;20220;-58
2021/01/19 06:49:55;;;;;;;5.00;4.40;;;;;;;;;;5094105;28;20220;-56
2021/01/19 06:52:22;;;;;;;4.13;3.05;;;;;;;;;;5093832;28;20208;-56
2021/01/19 06:54:56;;;;;;;3.95;3.55;;;;;;;;;;5094041;28;20724;-57
2021/01/19 06:57:32;;;;;;;5.30;3.35;;;;;;;;;;5093836;28;20629;-57
2021/01/19 07:00:07;;;;;;;6.05;3.45;;;;;;;;;;5093812;28;20711;-57
2021/01/19 07:02:35;;;;;;;3.25;2.95;;;;;;;;;;5094290;28;20223;-57
2021/01/19 07:05:08;;;;;;;6.95;2.63;;;;;;;;;;5094222;28;20261;-57
2021/01/19 07:07:37;;;;;;;5.28;3.67;;;;;;;;;;5093801;28;20253;-57
2021/01/19 07:10:06;;;;;;;5.07;3.50;;;;;;;;;;5094674;28;20235;-56
2021/01/19 07:12:51;;;;;;;7.45;3.63;;;;;;;;;;5093573;28;20204;-57
2021/01/19 07:15:21;;;;;;;6.20;3.15;;;;;;;;;;5094021;28;20257;-56
2021/01/19 07:18:03;;;;;;;5.78;3.10;;;;;;;;;;5093817;28;20200;-58
2021/01/19 07:20:31;;;;;;;5.38;3.28;;;;;;;;;;5091360;28;20273;-57
2021/01/19 07:22:58;;;;;;;4.70;3.30;;;;;;;;;;5093417;28;20201;-57
2021/01/19 07:25:25;;;;;;;5.40;3.03;;;;;;;;;;5093762;28;20200;-57
2021/01/19 07:27:52;;;;;;;6.05;3.63;;;;;;;;;;5093237;28;20200;-57
2021/01/19 07:30:21;;;;;;;5.55;3.22;;;;;;;;;;5093195;28;20228;-56
2021/01/19 07:32:50;;;;;;;4.90;3.28;;;;;;;;;;5093576;28;20243;-56
2021/01/19 07:35:17;;;;;;;6.50;2.88;;;;;;;;;;5093236;28;20211;-57
2021/01/19 07:37:44;;;;;;;4.50;2.78;;;;;;;;;;5093345;28;20200;-56
2021/01/19 07:40:18;;;;;;;4.00;3.00;;;;;;;;;;5093014;28;20713;-57
2021/01/19 07:42:45;;;;;;;8.55;3.00;;;;;;;;;;5092710;28;20663;-56
2021/01/19 07:45:12;;;;;;;3.50;2.65;;;;;;;;;;5092984;28;20253;-56
2021/01/19 07:47:40;;;;;;;7.65;3.17;;;;;;;;;;5092935;28;20224;-57
2021/01/19 07:50:08;;;;;;;8.95;5.05;;;;;;;;;;5092946;28;20223;-56
2021/01/19 07:52:38;;;;;;;7.95;3.00;;;;;;;;;;5093290;28;20207;-58
2021/01/19 07:55:16;;;;;;;5.10;2.80;;;;;;;;;;5092954;28;20188;-56
2021/01/19 07:57:43;;;;;;;4.88;3.35;;;;;;;;;;5093068;28;20249;-56
2021/01/19 08:00:11;;;;;;;4.97;2.95;;;;;;;;;;5093425;28;20307;-57
2021/01/19 08:02:37;;;;;;;6.63;3.30;;;;;;;;;;5093331;28;20200;-56
2021/01/19 08:05:06;;;;;;;4.00;2.65;;;;;;;;;;5093411;28;20200;-56
2021/01/19 08:07:40;;;;;;;5.05;3.13;;;;;;;;;;5092611;28;20220;-57
2021/01/19 08:10:18;;;;;;;5.85;3.38;;;;;;;;;;5092952;28;20220;-56
2021/01/19 08:12:45;;;;;;;5.30;3.00;;;;;;;;;;5093031;28;20190;-56
2021/01/19 08:15:18;;;;;;;5.18;2.97;;;;;;;;;;5093139;28;20231;-56
2021/01/19 08:17:49;;;;;;;6.43;2.70;;;;;;;;;;5092819;28;20192;-56
2021/01/19 08:20:24;;;;;;;5.88;3.30;;;;;;;;;;5093388;28;20216;-56
2021/01/19 08:22:51;;;;;;;4.60;2.67;;;;;;;;;;5092665;28;20188;-56
2021/01/19 08:25:24;;;;;;;6.95;3.50;;;;;;;;;;5092925;28;20204;-56
2021/01/19 08:27:51;;;;;;;6.00;3.42;;;;;;;;;;5092892;28;20212;-56
2021/01/19 08:30:24;;;;;;;4.70;2.47;;;;;;;;;;5092279;28;20242;-56
2021/01/19 08:32:51;;;;;;;4.80;2.80;;;;;;;;;;5092436;28;20195;-56
2021/01/19 08:35:18;;;;;;;4.90;3.20;;;;;;;;;;5092777;28;20644;-57
2021/01/19 08:37:50;;;;;;;6.35;3.05;;;;;;;;;;5093115;28;20224;-56
2021/01/19 08:40:21;;;;;;;4.55;3.00;;;;;;;;;;5092847;28;20220;-57
2021/01/19 08:42:47;;;;;;;7.47;3.17;;;;;;;;;;5092894;28;20195;-57
2021/01/19 08:45:21;;;;;;;3.78;2.92;;;;;;;;;;5093216;28;20250;-57
2021/01/19 08:47:48;;;;;;;5.55;3.20;;;;;;;;;;5092885;28;20208;-57
2021/01/19 08:50:16;;;;;;;6.85;3.60;;;;;;;;;;5092758;28;20224;-57
2021/01/19 08:52:43;;;;;;;3.28;2.67;;;;;;;;;;5093619;28;20200;-57
2021/01/19 08:55:15;;;;;;;5.75;3.00;;;;;;;;;;5096269;28;20287;-56
2021/01/19 08:57:43;;;;;;;6.00;4.00;;;;;;;;;;5096112;28;20279;-56
2021/01/19 09:00:11;;;;;;;5.75;3.90;;;;;;;;;;5096442;28;20220;-56
2021/01/19 09:02:38;;;;;;;4.75;3.22;;;;;;;;;;5096303;28;20680;-55
2021/01/19 09:05:06;;;;;;;5.82;3.25;;;;;;;;;;5095711;28;20201;-56
2021/01/19 09:07:33;;;;;;;3.97;3.10;;;;;;;;;;5095756;28;20251;-56
2021/01/19 09:10:00;;;;;;;3.40;2.60;;;;;;;;;;5096129;28;20224;-57
2021/01/19 09:12:27;;;;;;;2.67;2.03;;;;;;;;;;5096145;28;20198;-57
2021/01/19 09:14:54;;;;;;;4.63;2.97;;;;;;;;;;5096318;28;20200;-56
2021/01/19 09:17:25;;;;;;;2.47;1.98;;;;;;;;;;5095953;28;20196;-56
2021/01/19 09:20:05;;;;;;;3.80;2.72;;;;;;;;;;5095997;28;20228;-56
2021/01/19 09:22:32;;;;;;;5.25;2.75;;;;;;;;;;5095756;28;20436;-56
2021/01/19 09:24:58;;;;;;;3.85;2.65;;;;;;;;;;5095726;28;20203;-56
2021/01/19 09:27:25;;;;;;;3.35;2.55;;;;;;;;;;5095641;28;20216;-56
2021/01/19 09:30:03;;;;;;;3.25;2.15;;;;;;;;;;5096239;28;20228;-56
2021/01/19 09:32:30;;;;;;;10.25;2.80;;;;;;;;;;5096879;28;20229;-56
2021/01/19 09:35:01;;;;;;;3.50;1.73;;;;;;;;;;5096402;28;20560;-56
2021/01/19 09:37:28;;;;;;;3.20;2.22;;;;;;;;;;5096048;28;20180;-55
2021/01/19 09:39:55;;;;;;;2.60;2.20;;;;;;;;;;5096553;28;20217;-56
2021/01/19 09:42:22;;;;;;;3.55;2.10;;;;;;;;;;5096074;28;20265;-56
2021/01/19 09:44:49;;;;;;;4.78;2.75;;;;;;;;;;5095444;28;20667;-57
2021/01/19 09:47:17;;;;;;;1.80;1.70;;;;;;;;;;5095583;28;20295;-56
2021/01/19 09:49:44;;;;;;;2.60;2.15;;;;;;;;;;5095961;28;20229;-57
2021/01/19 09:52:11;;;;;;;3.25;2.25;;;;;;;;;;5095573;28;20249;-57
2021/01/19 09:54:38;;;;;;;5.50;1.85;;;;;;;;;;5095511;28;20205;-56
2021/01/19 09:57:07;;;;;;;2.50;2.20;;;;;;;;;;5094822;28;20432;-59
2021/01/19 09:59:33;;;;;;;4.07;2.20;;;;;;;;;;5095315;28;20200;-57
2021/01/19 10:02:01;;;;;;;4.55;2.00;;;;;;;;;;5095329;28;20204;-57
2021/01/19 10:04:29;;;;;;;3.15;1.90;;;;;;;;;;5094765;28;20200;-56
2021/01/19 10:07:02;;;;;;;2.50;1.83;;;;;;;;;;5095873;28;20567;-57
2021/01/19 10:09:29;;;;;;;3.92;1.92;;;;;;;;;;5094679;28;20722;-55
2021/01/19 10:11:56;;;;;;;3.08;2.08;;;;;;;;;;5094993;28;20203;-56
2021/01/19 10:14:30;;;;;;;2.35;2.10;;;;;;;;;;5095036;28;20699;-57
2021/01/19 10:16:57;;;;;;;3.15;2.00;;;;;;;;;;5095704;28;20200;-56
2021/01/19 10:19:24;;;;;;;2.30;2.10;;;;;;;;;;5095066;28;20250;-56
2021/01/19 10:21:53;;;;;;;2.47;2.10;;;;;;;;;;5095091;28;20204;-57
2021/01/19 10:24:20;;;;;;;3.30;2.10;;;;;;;;;;5094436;28;20200;-57
2021/01/19 10:26:58;;;;;;;4.07;1.80;;;;;;;;;;5094880;28;20216;-57
2021/01/19 10:29:25;;;;;;;2.35;1.65;;;;;;;;;;5094714;28;20188;-58
2021/01/19 10:31:55;;;;;;;2.65;2.05;;;;;;;;;;5094968;28;20314;-57
2021/01/19 10:34:22;;;;;;;1.80;1.70;;;;;;;;;;5094582;28;20721;-57
2021/01/19 10:36:53;;;;;;;2.25;1.85;;;;;;;;;;5094455;28;20201;-57
2021/01/19 10:39:20;;;;;;;2.92;2.08;;;;;;;;;;5094160;28;20189;-58
2021/01/19 10:41:48;;;;;;;2.10;1.90;;;;;;;;;;5094198;28;20238;-57
2021/01/19 10:44:15;;;;;;;1.80;1.40;;;;;;;;;;5094340;28;20200;-57
2021/01/19 10:46:42;;;;;;;1.40;1.30;;;;;;;;;;5094194;28;20270;-57
2021/01/19 10:49:10;;;;;;;1.85;1.70;;;;;;;;;;5095528;28;20560;-57
2021/01/19 10:51:37;;;;;;;3.45;2.47;;;;;;;;;;5094566;28;20231;-58
2021/01/19 10:54:09;;;;;;;2.13;1.92;;;;;;;;;;5094043;28;20729;-57
2021/01/19 10:56:36;;;;;;;3.20;2.08;;;;;;;;;;5093781;28;20196;-56
2021/01/19 10:59:03;;;;;;;1.63;1.50;;;;;;;;;;5093522;28;20648;-57
2021/01/19 11:01:30;;;;;;;1.45;1.35;;;;;;;;;;5093492;28;20708;-57
2021/01/19 11:03:57;;;;;;;2.25;1.35;;;;;;;;;;5094109;28;20228;-57
2021/01/19 11:06:29;;;;;;;4.90;1.83;;;;;;;;;;5093742;28;20325;-58
2021/01/19 11:08:56;;;;;;;3.20;1.17;;;;;;;;;;5093643;28;20193;-57
2021/01/19 11:11:23;;;;;;;1.15;1.00;;;;;;;;;;5093722;28;20285;-58
2021/01/19 11:13:50;;;;;;;1.15;1.05;;;;;;;;;;5093299;28;20752;-58
2021/01/19 11:16:17;;;;;;;1.42;1.20;;;;;;;;;;5092784;28;20200;-58
2021/01/19 11:18:44;;;;;;;2.65;1.20;;;;;;;;;;5093588;28;20200;-57
2021/01/19 11:21:12;;;;;;;2.00;1.80;;;;;;;;;;5093179;28;20616;-57
2021/01/19 11:23:39;;;;;;;1.90;1.20;;;;;;;;;;5092983;28;20294;-57
2021/01/19 11:26:06;;;;;;;2.25;1.52;;;;;;;;;;5093312;28;20292;-56
2021/01/19 11:28:33;;;;;;;1.60;1.30;;;;;;;;;;5092736;28;20204;-57
2021/01/19 11:31:00;;;;;;;2.50;1.40;;;;;;;;;;5128381;22;20435;-63
2021/01/19 11:33:27;;;;;;;1.25;1.15;;;;;;;;;;5099713;28;20430;-63
2021/01/19 11:35:54;;;;;;;1.95;1.40;;;;;;;;;;5096604;28;20207;-62
2021/01/19 11:38:20;;;;;;;1.13;0.80;;;;;;;;;;5096001;28;20355;-62
2021/01/19 11:40:48;;;;;;;1.10;1.00;;;;;;;;;;5096259;28;20223;-61
2021/01/19 11:43:15;;;;;;;1.90;1.30;;;;;;;;;;5095864;28;20805;-62
2021/01/19 11:45:42;;;;;;;1.40;1.30;;;;;;;;;;5098016;28;20462;-62
2021/01/19 11:48:10;;;;;;;1.55;1.13;;;;;;;;;;5095795;28;20221;-62
2021/01/19 11:50:36;;;;;;;2.97;1.00;;;;;;;;;;5095761;28;20216;-62
2021/01/19 11:53:03;;;;;;;1.45;1.10;;;;;;;;;;5096114;28;20204;-63
2021/01/19 11:55:30;;;;;;;1.20;1.10;;;;;;;;;;5095207;28;20672;-61
2021/01/19 11:57:57;;;;;;;1.20;1.10;;;;;;;;;;5098265;28;20197;-61
2021/01/19 12:00:23;;;;;;;1.98;1.77;;;;;;;;;;5101563;28;20220;-62
2021/01/19 12:02:51;;;;;;;1.50;1.40;;;;;;;;;;5100847;28;20211;-62
2021/01/19 12:05:18;;;;;;;1.45;1.05;;;;;;;;;;5097592;28;20200;-61
2021/01/19 12:07:45;;;;;;;1.65;1.10;;;;;;;;;;5097110;28;20216;-61
2021/01/19 12:10:11;;;;;;;1.05;0.95;;;;;;;;;;5097239;28;20216;-61
2021/01/19 12:12:38;;;;;;;1.48;1.10;;;;;;;;;;5098359;28;20204;-62
2021/01/19 12:15:06;;;;;;;1.55;1.10;;;;;;;;;;5097859;28;20211;-63
2021/01/19 12:17:33;;;;;;;1.60;1.50;;;;;;;;;;5097172;28;20197;-62
2021/01/19 12:20:01;;;;;;;1.05;0.85;;;;;;;;;;5106383;28;20201;-61
2021/01/19 12:22:27;;;;;;;1.95;1.20;;;;;;;;;;5108616;28;20206;-61
2021/01/19 12:24:54;;;;;;;1.23;1.13;;;;;;;;;;5108099;28;20214;-63
2021/01/19 12:27:21;;;;;;;1.30;1.20;;;;;;;;;;5109685;28;20220;-62
2021/01/19 12:29:48;;;;;;;1.10;1.00;;;;;;;;;;5113081;28;20218;-63
2021/01/19 12:32:15;;;;;;;1.30;1.20;;;;;;;;;;5113123;28;20444;-63
2021/01/19 12:34:42;;;;;;;1.40;1.30;;;;;;;;;;5115006;28;20211;-62
2021/01/19 12:37:10;;;;;;;1.20;1.10;;;;;;;;;;5112510;28;20197;-63
2021/01/19 12:39:37;;;;;;;1.75;1.65;;;;;;;;;;5112544;28;20200;-63
2021/01/19 12:42:04;;;;;;;1.25;1.15;;;;;;;;;;5111299;28;20224;-62
2021/01/19 12:44:30;;;;;;;1.27;1.17;;;;;;;;;;5111962;28;20211;-63
2021/01/19 12:47:00;;;;;;;3.28;1.30;;;;;;;;;;5111057;28;20220;-63
2021/01/19 12:49:27;;;;;;;1.80;1.48;;;;;;;;;;5112794;28;20657;-62
2021/01/19 12:51:54;;;;;;;1.17;1.08;;;;;;;;;;5113476;28;20656;-63
2021/01/19 12:54:21;;;;;;;2.53;1.80;;;;;;;;;;5114053;28;20324;-62
2021/01/19 12:56:48;;;;;;;2.45;2.20;;;;;;;;;;5113698;28;20211;-63
2021/01/19 12:59:15;;;;;;;1.38;1.27;;;;;;;;;;5111861;28;20200;-62
2021/01/19 13:01:42;;;;;;;1.45;1.25;;;;;;;;;;5109678;28;20224;-63
2021/01/19 13:04:09;;;;;;;1.52;1.42;;;;;;;;;;5105799;28;20204;-62
2021/01/19 13:06:35;;;;;;;1.60;1.50;;;;;;;;;;5099467;28;20491;-62
2021/01/19 13:09:02;;;;;;;1.50;1.40;;;;;;;;;;5098011;28;20208;-62
2021/01/19 13:11:30;;;;;;;1.70;1.50;;;;;;;;;;5098743;28;20236;-62
2021/01/19 13:13:59;;;;;;;1.42;1.33;;;;;;;;;;5098624;28;20200;-63
2021/01/19 13:16:26;;;;;;;1.65;1.48;;;;;;;;;;5097913;28;20667;-63
2021/01/19 13:18:53;;;;;;;1.75;1.65;;;;;;;;;;5098296;28;20204;-62
2021/01/19 13:21:20;;;;;;;2.03;1.33;;;;;;;;;;5103105;28;20216;-62
2021/01/19 13:23:46;;;;;;;3.60;1.52;;;;;;;;;;5107095;28;20201;-62
2021/01/19 13:26:13;;;;;;;1.70;1.60;;;;;;;;;;5109054;28;20196;-63
2021/01/19 13:28:41;;;;;;;1.60;1.50;;;;;;;;;;5099797;28;20204;-62
2021/01/19 13:31:07;;;;;;;2.17;1.70;;;;;;;;;;5097267;28;20228;-63
2021/01/19 13:33:34;;;;;;;1.70;1.60;;;;;;;;;;5104619;28;20203;-63
2021/01/19 13:36:01;;;;;;;1.80;1.70;;;;;;;;;;5110239;28;20209;-63
2021/01/19 13:38:28;;;;;;;2.25;1.95;;;;;;;;;;5110649;28;20204;-63
2021/01/19 13:40:54;;;;;;;2.20;1.80;;;;;;;;;;5102016;28;20229;-62
2021/01/19 13:43:21;;;;;;;1.95;1.85;;;;;;;;;;5097769;28;20231;-62
2021/01/19 13:45:49;;;;;;;2.33;2.22;;;;;;;;;;5097695;28;20204;-63
2021/01/19 13:48:16;;;;;;;2.30;2.10;;;;;;;;;;5096472;28;20220;-62
2021/01/19 13:50:42;;;;;;;2.25;2.10;;;;;;;;;;5096579;28;20216;-62
2021/01/19 13:53:09;;;;;;;2.00;1.90;;;;;;;;;;5097580;28;20639;-63
2021/01/19 13:55:36;;;;;;;2.10;2.00;;;;;;;;;;5097011;28;20664;-62
2021/01/19 13:58:03;;;;;;;1.77;1.67;;;;;;;;;;5097815;28;20203;-61
2021/01/19 14:00:31;;;;;;;1.90;1.80;;;;;;;;;;5097158;28;20227;-61
2021/01/19 14:02:59;;;;;;;2.05;1.95;;;;;;;;;;5097134;28;20273;-62
2021/01/19 14:05:25;;;;;;;2.53;2.25;;;;;;;;;;5100272;28;20207;-63
2021/01/19 14:07:52;;;;;;;1.95;1.85;;;;;;;;;;5097382;28;20220;-62
2021/01/19 14:10:19;;;;;;;4.63;2.00;;;;;;;;;;5097483;28;20227;-62
2021/01/19 14:12:46;;;;;;;1.80;1.70;;;;;;;;;;5097513;28;20211;-62
2021/01/19 14:15:13;;;;;;;2.30;2.10;;;;;;;;;;5097002;28;20204;-64
2021/01/19 14:17:40;;;;;;;1.60;1.50;;;;;;;;;;5096068;28;20227;-64
2021/01/19 14:20:08;;;;;;;1.50;1.40;;;;;;;;;;5096335;28;20548;-63
2021/01/19 14:22:35;;;;;;;2.10;1.90;;;;;;;;;;5096460;28;20204;-61
2021/01/19 14:25:02;;;;;;;2.00;1.80;;;;;;;;;;5096199;28;20279;-62
2021/01/19 14:27:29;;;;;;;3.50;1.80;;;;;;;;;;5095408;28;20262;-62
2021/01/19 14:29:56;;;;;;;2.92;1.52;;;;;;;;;;5095946;28;20290;-62
2021/01/19 14:32:22;;;;;;;1.33;1.23;;;;;;;;;;5096072;28;20219;-62
2021/01/19 14:34:49;;;;;;;1.60;1.50;;;;;;;;;;5095854;28;20253;-62
2021/01/19 14:37:17;;;;;;;1.58;1.48;;;;;;;;;;5095859;28;20200;-62
2021/01/19 14:39:44;;;;;;;1.80;1.23;;;;;;;;;;5095461;28;20211;-62
2021/01/19 14:42:12;;;;;;;1.70;1.60;;;;;;;;;;5095974;28;20293;-62
2021/01/19 14:44:39;;;;;;;2.08;1.88;;;;;;;;;;5096406;28;20201;-63
2021/01/19 14:47:07;;;;;;;1.70;1.60;;;;;;;;;;5095203;28;20227;-62
2021/01/19 14:49:34;;;;;;;1.77;1.63;;;;;;;;;;5096684;28;20575;-62
2021/01/19 14:52:02;;;;;;;2.30;2.08;;;;;;;;;;5095301;28;20307;-61
2021/01/19 14:54:30;;;;;;;2.15;1.95;;;;;;;;;;5095892;28;20208;-62
2021/01/19 14:56:57;;;;;;;3.08;1.60;;;;;;;;;;5096267;28;20196;-63
2021/01/19 14:59:23;;;;;;;2.10;2.00;;;;;;;;;;5094931;28;20230;-62
2021/01/19 15:01:50;;;;;;;1.80;1.70;;;;;;;;;;5094874;28;20228;-62
2021/01/19 15:04:19;;;;;;;2.22;2.08;;;;;;;;;;5095091;28;20230;-63
2021/01/19 15:06:49;;;;;;;2.30;2.10;;;;;;;;;;5094856;28;20254;-62
2021/01/19 15:09:17;;;;;;;2.78;2.40;;;;;;;;;;5095330;28;20251;-61
2021/01/19 15:11:51;;;;;;;1.80;1.70;;;;;;;;;;5095657;28;20223;-62
2021/01/19 15:14:17;;;;;;;2.05;1.95;;;;;;;;;;5095072;28;20189;-62
2021/01/19 15:16:44;;;;;;;2.08;1.70;;;;;;;;;;5099465;28;20197;-62
2021/01/19 15:19:11;;;;;;;1.95;1.85;;;;;;;;;;5110686;28;20257;-62